Time;durP1;ratioP1;P1;durP2;ratioP2;P2;SDS_P1;SDS_P2;PMS_P1;PMS_P2;Temp;Humidity;BMP_temperature;BMP_pressure;BME280_temperature;BME280_humidity;BME280_pressure;Samples;Min_cycle;Max_cycle;Signal;HPM_P1;HPM_P2
2023/08/23 00:02:15;;;;;;;3.92;2.58;;;26.70;57.10;27.10;101244.00;;;;5009575;28;20241;-51
2023/08/23 00:04:41;;;;;;;3.63;2.70;;;26.60;57.30;27.10;101236.00;;;;5010644;28;20230;-51
2023/08/23 00:07:07;;;;;;;2.72;2.47;;;26.60;57.30;27.10;101241.00;;;;5018587;28;20175;-51
2023/08/23 00:09:33;;;;;;;3.58;2.55;;;26.60;57.20;27.10;101236.00;;;;5012721;28;20188;-51
2023/08/23 00:11:58;;;;;;;4.75;2.90;;;26.60;57.30;27.10;101239.00;;;;5010193;28;20207;-50
2023/08/23 00:14:24;;;;;;;3.92;2.50;;;26.60;57.70;27.00;101238.00;;;;5009975;28;20195;-51
2023/08/23 00:16:50;;;;;;;3.00;2.70;;;26.60;57.20;27.00;101232.00;;;;5010139;28;20187;-51
2023/08/23 00:19:15;;;;;;;2.92;2.50;;;26.50;57.10;27.00;101232.00;;;;5010111;28;20195;-51
2023/08/23 00:21:42;;;;;;;2.58;2.38;;;26.50;57.20;27.00;101230.00;;;;5015137;28;20346;-51
2023/08/23 00:24:08;;;;;;;2.97;2.55;;;26.50;57.30;26.90;101229.00;;;;5010143;28;20751;-51
2023/08/23 00:26:34;;;;;;;2.80;2.60;;;26.40;57.30;26.90;101223.00;;;;5010261;28;20561;-50
2023/08/23 00:28:59;;;;;;;3.33;2.40;;;26.50;57.30;26.90;101213.00;;;;5010211;28;20179;-51
2023/08/23 00:31:25;;;;;;;3.20;2.65;;;26.50;57.20;26.90;101221.00;;;;5009597;28;20222;-51
2023/08/23 00:33:51;;;;;;;2.53;2.33;;;26.50;57.10;26.80;101218.00;;;;5010147;28;20244;-51
2023/08/23 00:36:16;;;;;;;2.53;2.33;;;26.40;57.10;26.80;101213.00;;;;5008619;28;20650;-51
2023/08/23 00:38:42;;;;;;;3.03;2.40;;;26.40;57.90;26.80;101211.00;;;;5009959;28;20186;-51
2023/08/23 00:41:09;;;;;;;2.53;2.33;;;26.40;57.10;26.80;101218.00;;;;5009590;28;20176;-51
2023/08/23 00:43:34;;;;;;;3.10;2.38;;;26.40;56.90;26.80;101216.00;;;;5009741;28;20675;-51
2023/08/23 00:46:01;;;;;;;3.55;2.70;;;26.30;56.90;26.50;101222.00;;;;5009737;28;20179;-51
2023/08/23 00:48:27;;;;;;;2.75;2.40;;;26.30;56.80;26.70;101221.00;;;;5010042;28;20233;-52
2023/08/23 00:50:52;;;;;;;2.58;2.38;;;26.30;56.60;26.70;101217.00;;;;5008416;28;20623;-51
2023/08/23 00:53:18;;;;;;;2.83;2.50;;;26.30;56.60;26.70;101222.00;;;;5008572;28;20250;-51
2023/08/23 00:55:44;;;;;;;2.78;2.50;;;26.30;56.60;26.60;101223.00;;;;4976108;28;20797;-51
2023/08/23 00:58:09;;;;;;;2.60;2.33;;;26.30;56.60;26.60;101228.00;;;;5009694;28;20286;-51
2023/08/23 01:00:35;;;;;;;3.45;2.60;;;26.30;56.70;26.60;101221.00;;;;5008303;28;20191;-50
2023/08/23 01:03:01;;;;;;;2.50;2.30;;;26.20;56.80;26.60;101225.00;;;;5009778;28;20207;-51
2023/08/23 01:06:05;;;;;;;2.92;2.63;;;26.20;56.70;26.50;101223.00;;;;5008466;28;20183;-51
2023/08/23 01:09:04;;;;;;;3.33;2.58;;;26.20;57.00;26.50;101218.00;;;;4980247;28;20808;-50
2023/08/23 01:11:59;;;;;;;3.08;2.38;;;26.20;56.80;26.50;101223.00;;;;5009518;28;20286;-55
2023/08/23 01:14:48;;;;;;;2.78;2.20;;;26.20;56.80;26.40;101219.00;;;;5008229;28;20201;-51
2023/08/23 01:17:14;;;;;;;2.65;2.45;;;26.20;56.90;26.40;101220.00;;;;4994544;28;20736;-50
2023/08/23 01:19:43;;;;;;;3.05;2.40;;;26.20;57.00;26.40;101224.00;;;;4991851;28;20183;-50
2023/08/23 01:22:12;;;;;;;3.45;2.40;;;26.10;57.00;26.40;101224.00;;;;5014369;28;20172;-50
2023/08/23 01:24:38;;;;;;;2.92;2.45;;;26.00;56.90;26.40;101208.00;;;;5008174;28;20199;-51
2023/08/23 01:27:04;;;;;;;2.78;2.58;;;26.00;56.90;26.30;101226.00;;;;5008226;28;20182;-50
2023/08/23 01:29:30;;;;;;;2.90;2.55;;;26.00;56.80;26.30;101224.00;;;;5009246;28;20658;-52
2023/08/23 01:32:06;;;;;;;3.97;2.75;;;26.00;56.80;26.30;101198.00;;;;5008983;28;20211;-50
2023/08/23 01:34:35;;;;;;;2.70;2.50;;;26.00;56.80;26.30;101219.00;;;;4977453;28;20278;-50
2023/08/23 01:37:01;;;;;;;2.58;2.38;;;25.90;56.90;26.20;101216.00;;;;4991799;28;20187;-52
2023/08/23 01:39:27;;;;;;;3.05;2.38;;;25.90;56.90;26.20;101223.00;;;;4975341;28;20191;-51
2023/08/23 01:41:53;;;;;;;5.30;2.60;;;25.90;56.90;26.20;101219.00;;;;4991192;28;20251;-51
2023/08/23 01:44:19;;;;;;;3.25;2.40;;;25.90;56.90;26.20;101209.00;;;;4974492;28;20572;-51
2023/08/23 01:46:44;;;;;;;2.78;2.58;;;25.80;56.80;26.10;101211.00;;;;5009104;28;20179;-52
2023/08/23 01:49:10;;;;;;;2.97;2.50;;;25.80;56.90;26.10;101193.00;;;;5008927;28;20184;-51
2023/08/23 01:51:36;;;;;;;2.83;2.53;;;25.80;57.00;26.10;101194.00;;;;5010207;28;20207;-51
2023/08/23 01:54:02;;;;;;;3.20;2.58;;;25.80;57.60;26.00;101195.00;;;;5012195;28;20223;-51
2023/08/23 01:56:27;;;;;;;5.50;2.78;;;25.80;56.90;26.00;101182.00;;;;5008838;28;20712;-51
2023/08/23 01:58:53;;;;;;;3.50;2.70;;;25.70;56.90;26.00;101185.00;;;;5008794;28;20187;-51
2023/08/23 02:01:19;;;;;;;2.97;2.60;;;25.70;56.90;26.00;101186.00;;;;5007206;28;20253;-51
2023/08/23 02:03:44;;;;;;;4.38;2.70;;;25.70;56.90;26.00;101189.00;;;;5008901;28;20269;-50
2023/08/23 02:06:10;;;;;;;2.92;2.63;;;25.70;56.90;25.90;101191.00;;;;5011605;28;20226;-50
2023/08/23 02:08:36;;;;;;;4.35;2.60;;;25.70;56.90;25.90;101190.00;;;;5014957;28;20635;-50
2023/08/23 02:11:02;;;;;;;3.17;2.40;;;25.70;56.90;25.90;101188.00;;;;5008292;28;20211;-50
2023/08/23 02:13:27;;;;;;;2.60;2.40;;;25.70;56.90;25.90;101198.00;;;;5008713;28;20191;-50
2023/08/23 02:15:53;;;;;;;2.75;2.50;;;25.60;56.80;25.90;101205.00;;;;5008621;28;20168;-51
2023/08/23 02:18:21;;;;;;;2.63;2.42;;;25.50;56.80;25.80;101195.00;;;;5008206;28;20191;-50
2023/08/23 02:20:55;;;;;;;4.13;2.80;;;25.50;56.90;25.80;101197.00;;;;5011243;28;20242;-50
2023/08/23 02:23:20;;;;;;;3.30;2.58;;;25.50;56.90;25.80;101198.00;;;;5009522;28;20677;-51
2023/08/23 02:25:46;;;;;;;2.85;2.60;;;25.50;57.00;25.70;101197.00;;;;5008253;28;20175;-51
2023/08/23 02:28:12;;;;;;;2.78;2.58;;;25.50;57.10;25.70;101208.00;;;;5008265;28;20183;-50
2023/08/23 02:30:38;;;;;;;3.38;2.70;;;25.50;57.10;25.70;101200.00;;;;5008261;28;20195;-51
2023/08/23 02:33:04;;;;;;;5.03;2.90;;;25.50;57.30;25.60;101199.00;;;;5008128;28;20291;-50
2023/08/23 02:35:29;;;;;;;4.13;2.60;;;25.30;57.40;25.60;101213.00;;;;5008508;28;20282;-50
2023/08/23 02:37:57;;;;;;;5.57;2.88;;;25.30;57.30;25.60;101211.00;;;;5008448;28;20183;-51
2023/08/23 02:40:23;;;;;;;2.95;2.75;;;25.30;57.40;25.60;101209.00;;;;5008043;28;20183;-50
2023/08/23 02:42:49;;;;;;;3.13;2.83;;;25.30;57.40;25.50;101210.00;;;;5008299;28;20592;-51
2023/08/23 02:45:15;;;;;;;3.03;2.55;;;25.20;57.30;25.50;101204.00;;;;5008506;28;20799;-50
2023/08/23 02:47:40;;;;;;;3.92;2.60;;;25.30;57.40;25.40;101204.00;;;;5008328;28;20176;-50
2023/08/23 02:50:06;;;;;;;2.97;2.60;;;25.30;57.30;25.50;101195.00;;;;5008240;28;20180;-50
2023/08/23 02:52:33;;;;;;;3.00;2.70;;;25.20;57.30;25.50;101194.00;;;;5006658;28;20219;-51
2023/08/23 02:54:58;;;;;;;3.03;2.75;;;25.20;57.50;25.50;101198.00;;;;5009862;28;20703;-50
2023/08/23 02:57:24;;;;;;;2.90;2.70;;;25.20;57.50;25.40;101188.00;;;;5011974;28;20262;-52
2023/08/23 02:59:50;;;;;;;4.05;2.60;;;25.20;57.40;25.40;101182.00;;;;5011973;28;20179;-51
2023/08/23 03:02:15;;;;;;;4.18;2.70;;;25.20;57.40;25.40;101175.00;;;;5012644;28;20199;-51
2023/08/23 03:04:41;;;;;;;3.33;2.80;;;25.20;57.40;25.40;101180.00;;;;5012952;28;20585;-50
2023/08/23 03:07:07;;;;;;;3.50;2.83;;;25.20;57.30;25.30;101179.00;;;;5012748;28;20180;-50
2023/08/23 03:09:33;;;;;;;3.92;2.95;;;25.10;57.30;25.30;101183.00;;;;5012704;28;20238;-50
2023/08/23 03:11:58;;;;;;;3.20;2.78;;;25.10;57.30;25.30;101169.00;;;;5012570;28;20547;-50
2023/08/23 03:14:24;;;;;;;5.10;2.85;;;25.10;57.40;25.30;101170.00;;;;5012770;28;20241;-50
2023/08/23 03:16:50;;;;;;;3.35;2.60;;;25.10;57.50;25.30;101169.00;;;;5013089;28;20187;-50
2023/08/23 03:19:16;;;;;;;3.40;2.72;;;25.00;57.50;25.20;101177.00;;;;5012928;28;20183;-50
2023/08/23 03:21:41;;;;;;;2.95;2.50;;;25.00;57.50;25.20;101179.00;;;;5017997;28;20206;-50
2023/08/23 03:24:07;;;;;;;2.97;2.67;;;25.00;57.70;25.20;101179.00;;;;5012504;28;20615;-50
2023/08/23 03:26:33;;;;;;;2.78;2.58;;;25.00;57.80;25.20;101184.00;;;;5011593;28;20187;-51
2023/08/23 03:28:59;;;;;;;3.70;2.83;;;24.90;57.60;25.10;101175.00;;;;5012613;28;20253;-50
2023/08/23 03:31:24;;;;;;;2.88;2.58;;;24.90;58.00;25.10;101177.00;;;;5007642;28;20207;-50
2023/08/23 03:33:50;;;;;;;4.20;2.60;;;24.90;57.80;25.10;101169.00;;;;5011146;28;20195;-51
2023/08/23 03:36:16;;;;;;;3.60;2.50;;;24.90;57.80;25.10;101175.00;;;;5011929;28;20218;-50
2023/08/23 03:38:41;;;;;;;4.40;2.85;;;24.90;58.30;25.10;101168.00;;;;5011695;28;20183;-50
2023/08/23 03:41:14;;;;;;;3.50;2.70;;;24.90;57.70;25.00;101168.00;;;;5011780;28;20175;-51
2023/08/23 03:43:40;;;;;;;4.53;3.53;;;24.90;57.70;25.00;101173.00;;;;5015327;28;20238;-49
2023/08/23 03:46:05;;;;;;;10.50;9.50;;;24.80;57.60;25.00;101173.00;;;;5016511;28;20183;-51
2023/08/23 03:48:31;;;;;;;5.30;4.65;;;24.80;57.60;24.60;101173.00;;;;5017673;28;20265;-51
2023/08/23 03:51:00;;;;;;;4.50;3.70;;;24.80;57.60;25.00;101171.00;;;;5012982;28;20242;-51
2023/08/23 03:53:26;;;;;;;3.15;2.88;;;24.80;57.60;24.90;101180.00;;;;5012867;28;20199;-51
2023/08/23 03:55:53;;;;;;;3.95;3.30;;;24.70;57.50;24.90;101177.00;;;;5012359;28;20558;-50
2023/08/23 03:58:20;;;;;;;3.63;3.33;;;24.70;57.60;24.90;101178.00;;;;5012920;28;20175;-50
2023/08/23 04:00:53;;;;;;;4.05;3.13;;;24.70;57.60;24.90;101173.00;;;;5010785;28;20187;-50
2023/08/23 04:03:18;;;;;;;4.72;3.03;;;24.70;57.60;24.90;101161.00;;;;5010263;28;20204;-52
2023/08/23 04:05:44;;;;;;;3.58;2.85;;;24.70;57.60;24.80;101165.00;;;;5013615;28;20194;-50
2023/08/23 04:08:10;;;;;;;3.03;2.72;;;24.70;57.60;24.80;101173.00;;;;5013936;28;20191;-51
2023/08/23 04:10:37;;;;;;;3.97;2.80;;;24.70;57.60;24.80;101175.00;;;;5011223;28;20576;-50
2023/08/23 04:13:03;;;;;;;3.45;2.90;;;24.60;57.60;24.80;101183.00;;;;5009872;28;20210;-49
2023/08/23 04:15:28;;;;;;;3.20;2.70;;;24.60;57.60;24.70;101176.00;;;;5009442;28;20184;-50
2023/08/23 04:17:54;;;;;;;2.80;2.53;;;24.60;57.90;24.70;101166.00;;;;5011113;28;20341;-50
2023/08/23 04:20:20;;;;;;;3.45;3.15;;;24.60;57.90;24.70;101164.00;;;;5010891;28;20187;-50
2023/08/23 04:22:46;;;;;;;3.80;3.00;;;24.60;57.90;24.70;101175.00;;;;5014531;28;20199;-51
2023/08/23 04:25:11;;;;;;;3.20;2.70;;;24.60;57.80;24.70;101172.00;;;;5010569;28;20539;-51
2023/08/23 04:27:37;;;;;;;3.58;2.70;;;24.50;57.80;24.60;101173.00;;;;5010987;28;20211;-50
2023/08/23 04:30:06;;;;;;;3.00;2.70;;;24.60;57.80;24.60;101166.00;;;;5011100;28;20238;-50
2023/08/23 04:32:32;;;;;;;4.43;2.90;;;24.50;57.80;24.60;101174.00;;;;5010304;28;20242;-51
2023/08/23 04:34:58;;;;;;;4.25;2.80;;;24.40;57.70;24.60;101171.00;;;;5010550;28;20211;-50
2023/08/23 04:37:23;;;;;;;3.30;2.83;;;24.40;57.90;24.60;101175.00;;;;5009448;28;20180;-50
2023/08/23 04:39:49;;;;;;;3.15;2.90;;;24.40;57.80;24.50;101187.00;;;;5010532;28;20267;-49
2023/08/23 04:42:15;;;;;;;5.32;3.05;;;24.40;57.80;24.50;101186.00;;;;5010632;28;20194;-50
2023/08/23 04:44:41;;;;;;;3.05;2.75;;;24.40;57.90;24.50;101184.00;;;;5010724;28;20665;-50
2023/08/23 04:47:06;;;;;;;4.75;2.78;;;24.40;57.80;24.50;101192.00;;;;5008953;28;20230;-49
2023/08/23 04:49:32;;;;;;;3.00;2.70;;;24.40;57.80;24.50;101196.00;;;;5010658;28;20566;-50
2023/08/23 04:51:58;;;;;;;4.43;2.65;;;24.40;57.90;24.50;101199.00;;;;5009130;28;20254;-49
2023/08/23 04:54:24;;;;;;;3.55;3.17;;;24.40;57.90;24.50;101197.00;;;;5009082;28;20654;-50
2023/08/23 04:56:50;;;;;;;6.30;5.70;;;24.40;58.00;24.40;101194.00;;;;5010266;28;20704;-50
2023/08/23 04:59:15;;;;;;;4.30;3.90;;;24.30;58.10;24.40;101195.00;;;;5010368;28;20185;-50
2023/08/23 05:01:41;;;;;;;5.57;3.80;;;24.40;58.10;24.40;101199.00;;;;5008879;28;20191;-49
2023/08/23 05:04:07;;;;;;;4.13;3.50;;;24.30;58.10;24.40;101198.00;;;;5010489;28;20231;-50
2023/08/23 05:06:34;;;;;;;3.97;3.58;;;24.30;58.10;24.40;101197.00;;;;5010112;28;20233;-51
2023/08/23 05:09:00;;;;;;;3.83;3.22;;;24.30;58.10;24.30;101195.00;;;;5010157;28;20211;-51
2023/08/23 05:11:26;;;;;;;3.72;3.42;;;24.20;58.00;24.30;101197.00;;;;5009957;28;20278;-51
2023/08/23 05:13:52;;;;;;;4.63;3.50;;;24.20;58.10;24.30;101196.00;;;;5009793;28;20230;-50
2023/08/23 05:16:17;;;;;;;3.38;3.08;;;24.20;58.20;24.30;101196.00;;;;5009469;28;20211;-51
2023/08/23 05:18:43;;;;;;;4.22;3.08;;;24.20;58.00;24.30;101199.00;;;;5009832;28;20240;-51
2023/08/23 05:21:09;;;;;;;5.55;3.60;;;24.20;58.20;24.20;101197.00;;;;5012986;28;20186;-51
2023/08/23 05:23:35;;;;;;;3.28;2.70;;;24.20;58.00;24.20;101195.00;;;;5009797;28;20196;-51
2023/08/23 05:26:01;;;;;;;5.00;3.07;;;24.10;58.00;24.20;101194.00;;;;5009261;28;20267;-50
2023/08/23 05:28:26;;;;;;;3.17;2.88;;;24.10;58.10;24.20;101196.00;;;;5008791;28;20179;-50
2023/08/23 05:30:52;;;;;;;5.80;3.10;;;24.10;58.20;24.20;101191.00;;;;5009041;28;20214;-50
2023/08/23 05:33:18;;;;;;;4.43;2.88;;;24.10;58.10;24.10;101192.00;;;;5009733;28;20269;-50
2023/08/23 05:35:44;;;;;;;4.43;2.83;;;24.10;58.30;24.10;101193.00;;;;5009439;28;20172;-49
2023/08/23 05:38:09;;;;;;;3.53;3.00;;;24.10;58.40;24.10;101197.00;;;;5009573;28;20214;-50
2023/08/23 05:40:39;;;;;;;5.28;3.03;;;24.10;58.30;24.10;101200.00;;;;5009385;28;20183;-50
2023/08/23 05:43:05;;;;;;;3.38;2.83;;;24.10;58.40;24.10;101196.00;;;;5009360;28;20207;-50
2023/08/23 05:45:31;;;;;;;3.58;2.80;;;24.10;58.50;24.10;101189.00;;;;5009017;28;20180;-58
2023/08/23 05:47:59;;;;;;;3.73;3.07;;;24.10;58.30;24.10;101195.00;;;;5009492;28;20687;-49
2023/08/23 05:50:24;;;;;;;4.55;2.90;;;24.10;58.40;24.10;101200.00;;;;5015590;28;20180;-50
2023/08/23 05:52:50;;;;;;;3.97;2.92;;;24.10;58.60;24.00;101196.00;;;;5013005;28;20206;-49
2023/08/23 05:55:16;;;;;;;4.72;2.90;;;24.10;58.70;24.00;101200.00;;;;5009678;28;20187;-50
2023/08/23 05:57:42;;;;;;;4.57;3.20;;;24.00;58.50;24.00;101208.00;;;;5009322;28;20201;-50
2023/08/23 06:00:11;;;;;;;3.63;3.00;;;24.00;58.60;24.00;101211.00;;;;5008041;28;20183;-50
2023/08/23 06:02:37;;;;;;;4.65;3.33;;;23.90;58.70;24.00;101202.00;;;;5009507;28;20183;-52
2023/08/23 06:05:03;;;;;;;4.28;3.15;;;23.90;58.90;24.00;101202.00;;;;5015011;28;20245;-52
2023/08/23 06:07:29;;;;;;;4.18;2.80;;;23.90;58.90;24.00;101206.00;;;;5005500;28;20566;-53
2023/08/23 06:09:55;;;;;;;4.78;3.20;;;23.90;59.10;24.00;101203.00;;;;5009663;28;20183;-54
2023/08/23 06:12:24;;;;;;;3.43;3.00;;;23.80;59.10;24.00;101197.00;;;;5007703;28;20258;-55
2023/08/23 06:14:49;;;;;;;5.90;3.35;;;23.80;59.20;24.00;101197.00;;;;5009091;28;20176;-54
2023/08/23 06:17:16;;;;;;;4.87;3.30;;;23.80;59.40;24.00;101201.00;;;;5005113;28;20183;-55
2023/08/23 06:19:42;;;;;;;3.65;3.30;;;23.80;59.50;24.00;101202.00;;;;5008328;28;20223;-56
2023/08/23 06:22:08;;;;;;;4.97;3.15;;;23.80;59.60;24.00;101203.00;;;;5009946;28;20226;-53
2023/08/23 06:24:34;;;;;;;4.15;3.20;;;23.80;60.00;24.00;101200.00;;;;5006511;28;20693;-54
2023/08/23 06:27:01;;;;;;;3.47;2.93;;;23.80;60.60;24.00;101194.00;;;;5007375;28;20270;-54
2023/08/23 06:29:26;;;;;;;3.53;2.80;;;23.80;60.60;24.00;101179.00;;;;5008424;28;20192;-53
2023/08/23 06:31:52;;;;;;;5.57;2.90;;;23.80;60.50;23.90;101183.00;;;;5007133;28;20222;-53
2023/08/23 06:34:18;;;;;;;5.47;2.80;;;23.70;60.90;23.90;101203.00;;;;5007320;28;20286;-53
2023/08/23 06:36:44;;;;;;;3.00;2.70;;;23.80;61.10;23.90;101190.00;;;;5008842;28;20183;-53
2023/08/23 06:39:10;;;;;;;6.20;3.17;;;23.80;61.00;23.90;101193.00;;;;5008632;28;20222;-53
2023/08/23 06:41:37;;;;;;;4.00;2.90;;;23.70;61.00;23.90;101190.00;;;;5008198;28;20187;-52
2023/08/23 06:44:03;;;;;;;3.55;3.00;;;23.70;61.00;23.90;101192.00;;;;5007634;28;20199;-53
2023/08/23 06:46:29;;;;;;;7.20;3.03;;;23.70;61.10;23.90;101191.00;;;;5009206;28;20195;-53
2023/08/23 06:48:55;;;;;;;5.18;3.13;;;23.70;61.20;23.90;101193.00;;;;5009036;28;20378;-53
2023/08/23 06:51:21;;;;;;;4.22;2.88;;;23.70;61.40;23.90;101200.00;;;;5008176;28;20225;-53
2023/08/23 06:53:49;;;;;;;4.70;2.70;;;23.70;61.30;23.90;101201.00;;;;5007646;28;20747;-53
2023/08/23 06:56:15;;;;;;;5.63;2.80;;;23.70;61.40;23.90;101188.00;;;;5009151;28;20191;-53
2023/08/23 06:58:41;;;;;;;4.47;2.80;;;23.70;61.40;23.90;101196.00;;;;5009240;28;20718;-52
2023/08/23 07:01:13;;;;;;;2.90;2.60;;;23.70;61.40;23.90;101201.00;;;;5008803;28;20183;-52
2023/08/23 07:03:41;;;;;;;4.93;2.97;;;23.70;61.50;23.90;101192.00;;;;5007964;28;20207;-53
2023/08/23 07:06:06;;;;;;;3.20;2.90;;;23.70;61.70;23.90;101199.00;;;;5006754;28;20219;-53
2023/08/23 07:08:32;;;;;;;3.38;3.00;;;23.70;61.70;23.90;101196.00;;;;5008646;28;20601;-53
2023/08/23 07:10:58;;;;;;;3.83;2.80;;;23.70;61.90;23.90;101202.00;;;;5008512;28;20243;-52
2023/08/23 07:13:24;;;;;;;2.90;2.70;;;23.60;61.90;23.90;101206.00;;;;5008751;28;20202;-53
2023/08/23 07:15:49;;;;;;;3.97;2.75;;;23.60;62.10;23.90;101212.00;;;;5009019;28;20183;-53
2023/08/23 07:18:15;;;;;;;3.30;2.70;;;23.60;62.10;23.90;101213.00;;;;5008799;28;20684;-53
2023/08/23 07:20:41;;;;;;;3.03;2.70;;;23.60;62.30;23.90;101221.00;;;;5010619;28;20271;-53
2023/08/23 07:23:07;;;;;;;4.35;2.78;;;23.60;62.30;23.90;101216.00;;;;5009635;28;20203;-54
2023/08/23 07:25:32;;;;;;;3.20;2.90;;;23.60;62.40;23.90;101217.00;;;;5008953;28;20183;-52
2023/08/23 07:27:58;;;;;;;3.73;2.63;;;23.60;62.70;23.90;101219.00;;;;5008871;28;20659;-51
2023/08/23 07:30:24;;;;;;;3.80;2.38;;;23.60;62.90;23.90;101230.00;;;;5008628;28;20594;-53
2023/08/23 07:32:49;;;;;;;2.83;2.60;;;23.50;62.90;23.90;101229.00;;;;5008696;28;20203;-53
2023/08/23 07:35:15;;;;;;;5.68;2.90;;;23.50;63.10;23.90;101229.00;;;;5007237;28;20666;-53
2023/08/23 07:37:41;;;;;;;4.20;3.00;;;23.50;63.30;23.90;101235.00;;;;5008644;28;20176;-53
2023/08/23 07:40:09;;;;;;;2.70;2.50;;;23.50;63.60;24.00;101235.00;;;;5008408;28;20176;-53
2023/08/23 07:42:35;;;;;;;4.20;2.92;;;23.50;63.70;24.00;101238.00;;;;5011177;28;20674;-53
2023/08/23 07:45:01;;;;;;;4.13;2.50;;;23.50;63.90;24.00;101235.00;;;;5012221;28;20280;-54
2023/08/23 07:47:26;;;;;;;3.22;2.55;;;23.50;64.00;24.00;101238.00;;;;5012126;28;20700;-52
2023/08/23 07:49:52;;;;;;;3.00;2.67;;;23.50;64.00;24.00;101240.00;;;;5012527;28;20175;-53
2023/08/23 07:52:18;;;;;;;2.80;2.60;;;23.40;64.00;24.00;101248.00;;;;5012895;28;20570;-53
2023/08/23 07:54:44;;;;;;;3.28;2.50;;;23.50;64.30;24.00;101254.00;;;;5012024;28;20199;-52
2023/08/23 07:57:10;;;;;;;2.80;2.55;;;23.50;64.20;24.00;101242.00;;;;5010620;28;20697;-53
2023/08/23 07:59:36;;;;;;;3.00;2.60;;;23.50;64.40;24.10;101240.00;;;;5011723;28;20179;-53
2023/08/23 08:02:02;;;;;;;2.80;2.60;;;23.50;64.40;24.10;101240.00;;;;5011408;28;20191;-53
2023/08/23 08:04:29;;;;;;;3.03;2.70;;;23.50;64.40;24.10;101243.00;;;;5011690;28;20728;-53
2023/08/23 08:06:56;;;;;;;3.22;2.70;;;23.50;64.40;24.10;101247.00;;;;5016449;28;20219;-53
2023/08/23 08:09:22;;;;;;;3.10;2.50;;;23.60;64.50;24.10;101249.00;;;;5012339;28;20287;-53
2023/08/23 08:11:48;;;;;;;3.20;2.90;;;23.60;64.50;24.20;101254.00;;;;5011860;28;20606;-52
2023/08/23 08:14:13;;;;;;;2.80;2.50;;;23.60;64.20;24.20;101251.00;;;;5011615;28;20195;-53
2023/08/23 08:16:39;;;;;;;4.45;2.90;;;23.70;64.30;24.20;101266.00;;;;5011927;28;20187;-53
2023/08/23 08:19:05;;;;;;;3.10;2.80;;;23.70;64.30;24.20;101263.00;;;;5011433;28;20195;-53
2023/08/23 08:21:31;;;;;;;2.97;2.67;;;23.70;64.20;24.20;101257.00;;;;5014985;28;20581;-53
2023/08/23 08:23:58;;;;;;;2.80;2.60;;;23.80;64.20;24.30;101259.00;;;;5010335;28;20294;-52
2023/08/23 08:26:24;;;;;;;2.70;2.50;;;23.80;64.40;24.30;101257.00;;;;5010471;28;20266;-53
2023/08/23 08:28:50;;;;;;;3.50;2.60;;;23.80;64.50;24.30;101249.00;;;;5010303;28;20290;-53
2023/08/23 08:31:16;;;;;;;2.90;2.70;;;23.80;64.70;24.30;101250.00;;;;5010950;28;20697;-53
2023/08/23 08:33:42;;;;;;;2.85;2.65;;;23.80;64.60;24.30;101265.00;;;;5011119;28;20199;-52
2023/08/23 08:36:08;;;;;;;4.57;2.63;;;23.80;64.70;24.30;101260.00;;;;5011391;28;20179;-53
2023/08/23 08:38:33;;;;;;;2.90;2.50;;;23.80;64.70;24.30;101262.00;;;;5011457;28;20716;-53
2023/08/23 08:40:59;;;;;;;3.20;2.90;;;23.90;64.90;24.30;101219.00;;;;5011047;28;20211;-53
2023/08/23 08:43:25;;;;;;;2.83;2.60;;;23.90;64.90;24.30;101260.00;;;;5010118;28;20254;-53
2023/08/23 08:45:50;;;;;;;2.60;2.40;;;23.90;65.10;24.40;101266.00;;;;5009712;28;20611;-53
2023/08/23 08:48:17;;;;;;;2.72;2.45;;;23.90;64.90;24.40;101255.00;;;;5011491;28;20198;-53
2023/08/23 08:50:43;;;;;;;3.15;2.85;;;23.90;65.20;24.40;101258.00;;;;5010752;28;20677;-53
2023/08/23 08:53:15;;;;;;;2.70;2.50;;;23.90;65.30;24.40;101248.00;;;;5010728;28;20203;-53
2023/08/23 08:55:41;;;;;;;3.60;2.80;;;23.90;65.30;24.40;101240.00;;;;5009899;28;20670;-53
2023/08/23 08:58:07;;;;;;;2.80;2.60;;;23.90;65.40;24.40;101258.00;;;;4993619;28;20310;-53
2023/08/23 09:00:32;;;;;;;2.97;2.72;;;24.00;65.70;24.40;101253.00;;;;5009680;28;20250;-53
2023/08/23 09:02:58;;;;;;;3.20;2.90;;;24.00;65.90;24.40;101264.00;;;;5009598;28;20620;-53
2023/08/23 09:05:24;;;;;;;2.60;2.40;;;23.90;66.20;24.50;101251.00;;;;5010879;28;20175;-52
2023/08/23 09:07:50;;;;;;;3.00;2.70;;;24.00;66.40;24.50;101252.00;;;;5010765;28;20176;-52
2023/08/23 09:10:17;;;;;;;2.88;2.67;;;24.00;66.40;24.50;101257.00;;;;5010041;28;20199;-53
2023/08/23 09:12:42;;;;;;;2.90;2.70;;;23.90;67.00;24.50;101247.00;;;;5010771;28;20258;-52
2023/08/23 09:15:08;;;;;;;2.70;2.50;;;23.90;67.30;24.50;101243.00;;;;5010423;28;20171;-52
2023/08/23 09:17:35;;;;;;;2.70;2.50;;;23.90;67.40;24.50;101248.00;;;;5009232;28;20192;-52
2023/08/23 09:20:08;;;;;;;3.55;2.50;;;23.90;67.30;24.50;101245.00;;;;5010303;28;20176;-52
2023/08/23 09:22:34;;;;;;;2.60;2.40;;;24.00;67.40;24.60;101241.00;;;;5013660;28;20182;-52
2023/08/23 09:25:02;;;;;;;3.58;2.53;;;24.00;67.60;24.50;101235.00;;;;5010018;28;20202;-52
2023/08/23 09:27:28;;;;;;;2.63;2.42;;;24.00;67.80;24.60;101238.00;;;;5010228;28;20688;-52
2023/08/23 09:29:54;;;;;;;2.58;2.38;;;24.10;67.80;24.60;101244.00;;;;5010158;28;20188;-53
2023/08/23 09:32:20;;;;;;;2.97;2.78;;;24.10;68.30;24.60;101238.00;;;;5008990;28;20262;-54
2023/08/23 09:34:46;;;;;;;2.80;2.60;;;24.00;68.20;24.60;101234.00;;;;5010472;28;20246;-53
2023/08/23 09:37:12;;;;;;;2.88;2.67;;;24.10;68.40;24.60;101236.00;;;;5010484;28;20175;-53
2023/08/23 09:39:38;;;;;;;2.70;2.50;;;24.10;68.40;24.60;101232.00;;;;5010299;28;20181;-52
2023/08/23 09:42:05;;;;;;;2.63;2.42;;;24.10;68.60;24.40;101220.00;;;;5009973;28;20234;-53
2023/08/23 09:44:40;;;;;;;2.53;2.33;;;24.10;68.90;24.60;101225.00;;;;5009861;28;20298;-52
2023/08/23 09:47:09;;;;;;;2.60;2.40;;;24.10;69.10;24.60;101225.00;;;;5006880;28;20186;-53
2023/08/23 09:49:35;;;;;;;2.70;2.50;;;24.20;69.30;24.70;101215.00;;;;5008680;28;20603;-52
2023/08/23 09:52:01;;;;;;;2.72;2.53;;;24.10;69.50;24.70;101222.00;;;;4992183;28;20210;-52
2023/08/23 09:54:50;;;;;;;2.58;2.38;;;24.10;69.40;24.70;101216.00;;;;4995135;28;20203;-52
2023/08/23 09:57:18;;;;;;;3.40;2.40;;;24.10;69.40;24.70;101216.00;;;;5011953;28;20184;-52
2023/08/23 09:59:43;;;;;;;2.50;2.30;;;24.10;69.40;24.70;101206.00;;;;5005694;28;20261;-53
2023/08/23 10:02:12;;;;;;;3.40;2.30;;;24.20;69.80;24.50;101216.00;;;;4980098;28;20227;-54
2023/08/23 10:04:40;;;;;;;4.13;2.50;;;24.10;69.80;24.80;101206.00;;;;5008971;28;20227;-54
2023/08/23 10:07:07;;;;;;;3.10;2.50;;;24.20;70.50;24.80;101201.00;;;;5008260;28;20183;-54
2023/08/23 10:09:34;;;;;;;2.70;2.50;;;24.20;70.00;24.80;101193.00;;;;5010221;28;20180;-53
2023/08/23 10:12:01;;;;;;;2.50;2.30;;;24.30;71.00;24.80;101197.00;;;;5013558;28;20210;-54
2023/08/23 10:14:27;;;;;;;2.55;2.35;;;24.30;70.70;24.80;101204.00;;;;5012358;28;20199;-54
2023/08/23 10:16:53;;;;;;;2.92;2.50;;;24.30;71.00;24.80;101177.00;;;;4994843;28;20187;-54
2023/08/23 10:19:19;;;;;;;2.72;2.42;;;24.30;70.80;24.90;101201.00;;;;4975719;28;20191;-53
2023/08/23 10:21:45;;;;;;;2.60;2.40;;;24.30;71.20;24.90;101197.00;;;;5011462;28;20175;-54
2023/08/23 10:24:11;;;;;;;2.60;2.40;;;24.30;71.20;24.90;101200.00;;;;5009004;28;20700;-54
2023/08/23 10:26:49;;;;;;;2.60;2.40;;;24.30;70.90;24.90;101192.00;;;;4992116;28;20199;-54
2023/08/23 10:29:27;;;;;;;2.70;2.50;;;24.30;71.00;24.90;101190.00;;;;5008361;28;20529;-54
2023/08/23 10:31:54;;;;;;;3.95;2.25;;;24.30;71.20;24.90;101188.00;;;;4993321;28;20211;-54
2023/08/23 10:34:29;;;;;;;2.83;2.55;;;24.30;71.20;25.00;101177.00;;;;5007934;28;20249;-54
2023/08/23 10:36:55;;;;;;;2.67;2.47;;;24.40;71.30;25.00;101184.00;;;;5009291;28;20219;-54
2023/08/23 10:39:23;;;;;;;2.65;2.45;;;24.40;71.60;25.00;101179.00;;;;5008656;28;20723;-54
2023/08/23 10:41:53;;;;;;;2.58;2.38;;;24.40;71.60;25.00;101181.00;;;;5008980;28;20194;-54
2023/08/23 10:44:20;;;;;;;2.65;2.40;;;24.40;71.60;25.00;101188.00;;;;5008971;28;20199;-54
2023/08/23 10:46:46;;;;;;;2.50;2.30;;;24.40;71.60;25.00;101188.00;;;;5009111;28;20183;-54